Time;durP1;ratioP1;P1;durP2;ratioP2;P2;SDS_P1;SDS_P2;PMS_P1;PMS_P2;Temp;Humidity;BMP_temperature;BMP_pressure;BME280_temperature;BME280_humidity;BME280_pressure;Samples;Min_cycle;Max_cycle;Signal;HPM_P1;HPM_P2
2021/04/23 00:02:24;;;;;;;10.90;3.40;;;13.40;42.20;;;;;;9863734;29;20071;-78
2021/04/23 00:07:18;;;;;;;7.32;3.03;;;13.70;42.50;;;;;;9846257;29;20083;-77
2021/04/23 00:12:13;;;;;;;8.63;3.30;;;;;;;;;;9847047;29;20087;-80
2021/04/23 00:17:09;;;;;;;8.20;2.85;;;14.00;43.00;;;;;;9846263;29;20422;-79
2021/04/23 00:22:06;;;;;;;10.43;3.28;;;11.60;42.10;;;;;;9875494;29;20118;-80
2021/04/23 00:27:03;;;;;;;9.35;3.42;;;13.10;43.60;;;;;;9863814;29;20083;-80
2021/04/23 00:31:58;;;;;;;7.63;3.45;;;13.40;44.00;;;;;;9863629;29;20094;-81
2021/04/23 00:36:54;;;;;;;13.02;3.58;;;13.50;43.70;;;;;;9846421;29;20525;-78
2021/04/23 00:41:48;;;;;;;9.30;3.25;;;11.60;43.80;;;;;;9863038;29;20082;-79
2021/04/23 00:46:42;;;;;;;10.63;3.85;;;;;;;;;;9862316;29;20079;-81
2021/04/23 00:51:39;;;;;;;10.60;3.63;;;13.10;45.00;;;;;;9844445;29;20689;-78
2021/04/23 00:56:40;;;;;;;12.82;3.75;;;11.60;44.10;;;;;;9873820;29;20091;-80
2021/04/23 01:01:36;;;;;;;12.23;3.88;;;12.00;43.90;;;;;;9860768;29;20075;-78
2021/04/23 01:06:32;;;;;;;13.43;3.35;;;11.20;43.90;;;;;;9862033;29;20094;-79
2021/04/23 01:11:27;;;;;;;9.18;3.63;;;;;;;;;;9861589;29;20089;-80
2021/04/23 01:16:24;;;;;;;7.82;3.42;;;13.40;45.70;;;;;;9859519;29;20083;-78
2021/04/23 01:21:23;;;;;;;11.43;3.17;;;12.40;45.80;;;;;;9859627;29;20113;-78
2021/04/23 01:26:22;;;;;;;12.73;3.75;;;11.50;45.30;;;;;;9875270;29;20432;-78
2021/04/23 01:31:18;;;;;;;13.68;3.25;;;11.60;45.60;;;;;;9861121;29;20059;-78
2021/04/23 01:36:13;;;;;;;7.93;3.08;;;12.20;46.10;;;;;;9872944;29;20036;-79
2021/04/23 01:41:09;;;;;;;10.75;3.55;;;11.60;45.80;;;;;;9875305;29;20090;-77
2021/04/23 01:46:05;;;;;;;11.40;3.72;;;12.10;46.50;;;;;;9858847;29;20807;-77
2021/04/23 01:50:59;;;;;;;13.55;4.20;;;;;;;;;;9871942;29;20090;-79
2021/04/23 01:55:54;;;;;;;10.65;4.10;;;;;;;;;;9859955;29;20110;-77
2021/04/23 02:00:51;;;;;;;13.88;4.10;;;11.10;45.80;;;;;;9843383;29;20083;-79
2021/04/23 02:05:48;;;;;;;13.63;4.47;;;11.40;46.50;;;;;;9855728;29;20047;-77
2021/04/23 02:10:45;;;;;;;11.50;3.80;;;10.40;45.60;;;;;;9855634;29;20495;-77
2021/04/23 02:15:39;;;;;;;9.35;3.63;;;10.10;46.80;;;;;;9873025;29;20087;-78
2021/04/23 02:20:36;;;;;;;13.55;3.28;;;13.10;47.40;;;;;;9872968;29;20083;-77
2021/04/23 02:25:31;;;;;;;13.80;4.30;;;11.60;47.70;;;;;;9872505;29;20083;-78
2021/04/23 02:30:27;;;;;;;10.48;3.97;;;11.00;47.30;;;;;;9855221;29;20106;-79
2021/04/23 02:35:23;;;;;;;10.68;3.78;;;11.70;48.20;;;;;;9870593;29;20458;-79
2021/04/23 02:40:21;;;;;;;14.07;4.72;;;9.00;47.30;;;;;;9870800;29;20063;-78
2021/04/23 02:45:18;;;;;;;12.85;3.83;;;10.50;47.50;;;;;;9872351;29;20057;-78
2021/04/23 02:50:14;;;;;;;8.43;3.55;;;12.20;48.90;;;;;;9872650;29;20087;-77
2021/04/23 02:55:11;;;;;;;10.50;4.20;;;11.30;49.10;;;;;;9872072;29;20095;-79
2021/04/23 03:00:10;;;;;;;10.82;4.18;;;9.40;48.20;;;;;;9874926;29;20079;-79
2021/04/23 03:05:06;;;;;;;9.27;4.18;;;;;;;;;;9871759;29;20077;-78
2021/04/23 03:10:01;;;;;;;13.32;4.15;;;9.20;47.90;;;;;;9871539;29;20055;-77
2021/04/23 03:14:55;;;;;;;15.43;4.40;;;10.70;48.20;;;;;;9866673;29;20071;-78
2021/04/23 03:19:50;;;;;;;16.10;4.65;;;12.60;49.80;;;;;;9866045;29;20467;-77
2021/04/23 03:24:44;;;;;;;15.93;5.13;;;10.40;48.30;;;;;;9866183;29;20082;-80
2021/04/23 03:29:38;;;;;;;12.30;4.40;;;9.60;48.70;;;;;;9848431;29;20502;-78
2021/04/23 03:34:34;;;;;;;13.90;5.13;;;10.10;49.30;;;;;;9864953;29;20083;-80
2021/04/23 03:39:29;;;;;;;12.40;4.95;;;9.30;48.90;;;;;;9875592;29;20075;-80
2021/04/23 03:44:23;;;;;;;12.27;4.00;;;9.30;49.10;;;;;;9864633;29;20079;-77
2021/04/23 03:49:18;;;;;;;14.88;4.75;;;11.30;50.10;;;;;;9864685;29;20083;-78
2021/04/23 03:54:12;;;;;;;14.25;4.63;;;9.30;49.50;;;;;;9863299;29;20079;-79
2021/04/23 03:59:08;;;;;;;9.98;4.15;;;9.20;49.70;;;;;;9847447;29;20499;-80
2021/04/23 04:04:02;;;;;;;14.80;4.93;;;10.90;50.80;;;;;;9864313;29;20090;-79
2021/04/23 04:08:56;;;;;;;14.98;4.85;;;10.00;50.30;;;;;;9863890;29;20079;-79
2021/04/23 04:13:51;;;;;;;12.43;5.15;;;;;;;;;;9863441;29;20106;-78
2021/04/23 04:18:46;;;;;;;14.65;5.05;;;;;;;;;;9846619;29;20063;-78
2021/04/23 04:23:41;;;;;;;9.23;4.10;;;10.10;50.10;;;;;;9875177;29;20488;-78
2021/04/23 04:28:34;;;;;;;13.45;4.80;;;11.30;51.00;;;;;;9846011;29;20078;-77
2021/04/23 04:33:28;;;;;;;16.08;5.10;;;11.30;50.40;;;;;;9863071;29;20083;-78
2021/04/23 04:38:23;;;;;;;12.65;4.57;;;10.20;49.80;;;;;;9845887;29;20055;-79
2021/04/23 04:43:19;;;;;;;15.43;4.90;;;10.40;50.70;;;;;;9845420;29;20090;-78
2021/04/23 04:48:13;;;;;;;14.88;4.45;;;10.70;50.90;;;;;;9844836;29;20047;-77
2021/04/23 04:53:08;;;;;;;16.20;5.07;;;12.30;51.70;;;;;;9861684;29;20087;-78
2021/04/23 04:58:05;;;;;;;11.65;4.35;;;10.00;50.50;;;;;;9861463;29;20078;-79
2021/04/23 05:02:59;;;;;;;14.10;4.93;;;10.30;49.50;;;;;;9861234;29;20079;-78
2021/04/23 05:07:53;;;;;;;14.00;4.57;;;9.50;50.10;;;;;;9844412;29;20098;-77
2021/04/23 05:12:47;;;;;;;12.77;4.22;;;9.90;50.30;;;;;;9844268;29;20059;-78
2021/04/23 05:17:42;;;;;;;15.63;4.68;;;9.40;49.80;;;;;;9861436;29;20090;-77
2021/04/23 05:22:37;;;;;;;12.32;4.45;;;;;;;;;;9860319;29;20086;-80
2021/04/23 05:27:31;;;;;;;14.40;5.30;;;;;;;;;;9842244;29;20087;-78
2021/04/23 05:32:26;;;;;;;13.85;4.65;;;9.70;49.30;;;;;;9842552;29;20357;-80
2021/04/23 05:37:22;;;;;;;18.45;5.72;;;9.60;49.20;;;;;;9841638;29;20408;-77
2021/04/23 05:42:18;;;;;;;12.70;4.85;;;10.40;49.80;;;;;;9859972;29;20078;-78
2021/04/23 05:47:13;;;;;;;13.65;4.57;;;11.70;50.50;;;;;;9842586;29;20117;-77
2021/04/23 05:52:08;;;;;;;13.25;4.53;;;10.90;49.70;;;;;;9858645;28;20056;-81
2021/04/23 05:57:05;;;;;;;13.35;4.60;;;;;;;;;;9871592;29;20094;-78
2021/04/23 06:01:59;;;;;;;10.57;4.07;;;;;;;;;;9825409;29;20094;-80
2021/04/23 06:06:54;;;;;;;13.13;4.25;;;;;;;;;;9857692;29;20471;-78
2021/04/23 06:11:48;;;;;;;15.85;5.22;;;12.20;50.30;;;;;;9840077;29;20091;-78
2021/04/23 06:16:43;;;;;;;15.38;5.03;;;;;;;;;;9857372;29;20079;-79
2021/04/23 06:21:38;;;;;;;18.77;4.60;;;10.90;49.20;;;;;;9856837;29;20501;-79
2021/04/23 06:26:32;;;;;;;15.05;5.00;;;12.60;50.70;;;;;;9856716;29;20091;-77
2021/04/23 06:31:27;;;;;;;12.35;3.95;;;;;;;;;;9854978;29;20086;-80
2021/04/23 06:36:25;;;;;;;13.48;4.18;;;;;;;;;;9857034;29;20102;-79
2021/04/23 06:41:22;;;;;;;10.80;3.65;;;;;;;;;;9839372;29;20087;-79
2021/04/23 06:46:17;;;;;;;9.10;3.58;;;;;;;;;;9855091;29;20083;-78
2021/04/23 06:51:13;;;;;;;14.80;3.85;;;;;;;;;;9863242;29;20474;-78
2021/04/23 06:56:09;;;;;;;12.88;3.60;;;13.10;49.00;;;;;;9863558;29;20093;-78
2021/04/23 07:01:04;;;;;;;13.18;3.85;;;12.00;48.10;;;;;;9863440;29;20076;-77
2021/04/23 07:05:59;;;;;;;12.60;4.10;;;10.60;47.00;;;;;;9845324;29;20085;-78
2021/04/23 07:10:53;;;;;;;13.43;4.15;;;12.00;47.60;;;;;;9845280;29;20095;-79
2021/04/23 07:15:48;;;;;;;11.20;3.20;;;13.70;47.60;;;;;;9845756;29;20083;-79
2021/04/23 07:20:45;;;;;;;13.43;4.18;;;;;;;;;;9862182;29;20086;-77
2021/04/23 07:25:43;;;;;;;14.77;4.03;;;;;;;;;;9862215;29;20102;-78
2021/04/23 07:30:38;;;;;;;15.18;4.72;;;;;;;;;;9862763;29;20123;-79
2021/04/23 07:35:34;;;;;;;13.30;3.97;;;;;;;;;;9844689;29;20052;-80
2021/04/23 07:40:30;;;;;;;13.38;4.88;;;11.90;46.80;;;;;;9845171;29;20494;-78
2021/04/23 07:45:24;;;;;;;13.35;4.10;;;;;;;;;;9844135;29;20181;-78
2021/04/23 07:50:22;;;;;;;10.70;4.65;;;11.20;45.50;;;;;;9844133;29;20091;-78
2021/04/23 07:55:18;;;;;;;11.50;3.72;;;13.90;47.30;;;;;;9859693;29;20167;-78
2021/04/23 08:00:13;;;;;;;13.68;4.35;;;;;;;;;;9844145;29;20083;-79
2021/04/23 08:05:14;;;;;;;14.15;3.67;;;13.70;46.00;;;;;;9845391;29;20087;-80
2021/04/23 08:10:27;;;;;;;12.93;3.33;;;13.90;46.50;;;;;;9860062;29;20087;-79
2021/04/23 08:15:24;;;;;;;9.27;3.58;;;;;;;;;;9858795;29;20468;-79
2021/04/23 08:20:22;;;;;;;16.17;4.97;;;14.90;46.50;;;;;;9859767;29;20089;-78
2021/04/23 08:25:17;;;;;;;11.13;4.47;;;;;;;;;;9859600;29;20087;-78
2021/04/23 08:30:18;;;;;;;12.65;3.78;;;13.70;45.30;;;;;;9842227;29;20090;-76
2021/04/23 08:35:16;;;;;;;9.38;3.88;;;14.20;45.10;;;;;;9860533;29;20083;-78
2021/04/23 08:40:14;;;;;;;11.55;4.03;;;13.20;45.00;;;;;;9843916;29;20087;-78
2021/04/23 08:45:11;;;;;;;11.60;3.90;;;;;;;;;;9841942;29;20086;-78
2021/04/23 08:50:10;;;;;;;8.77;3.00;;;;;;;;;;9841712;29;20101;-77
2021/04/23 08:55:06;;;;;;;11.90;3.90;;;14.00;44.80;;;;;;9842562;29;20390;-77
2021/04/23 09:00:00;;;;;;;9.98;3.72;;;14.70;44.80;;;;;;9858917;29;20074;-77
2021/04/23 09:04:54;;;;;;;8.93;3.30;;;14.40;44.50;;;;;;9873121;28;20079;-80
2021/04/23 09:10:07;;;;;;;15.68;3.83;;;15.00;43.30;;;;;;9859283;29;20459;-78
2021/04/23 09:15:02;;;;;;;12.57;4.30;;;;;;;;;;9857362;29;20094;-79
2021/04/23 09:19:59;;;;;;;10.90;3.75;;;14.40;44.10;;;;;;9856959;29;20083;-79
2021/04/23 09:24:59;;;;;;;10.57;4.15;;;;;;;;;;9872044;29;20499;-77
2021/04/23 09:29:58;;;;;;;7.32;3.22;;;13.50;42.50;;;;;;9874024;29;20507;-82
2021/04/23 09:34:57;;;;;;;8.15;3.63;;;;;;;;;;9859371;29;20083;-82
2021/04/23 09:39:55;;;;;;;8.68;3.45;;;13.90;42.30;;;;;;9858613;29;20052;-82
2021/04/23 09:44:51;;;;;;;9.63;3.60;;;;;;;;;;9871378;29;20118;-81
2021/04/23 09:49:51;;;;;;;9.98;3.53;;;14.00;40.60;;;;;;9859994;29;20087;-81
2021/04/23 09:54:48;;;;;;;20.03;3.90;;;;;;;;;;9854842;29;20079;-79
2021/04/23 09:59:48;;;;;;;10.02;4.18;;;;;;;;;;9841086;29;20436;-81
2021/04/23 10:04:44;;;;;;;18.77;4.63;;;14.70;42.10;;;;;;9825818;29;20105;-79
2021/04/23 10:09:48;;;;;;;8.93;4.00;;;;;;;;;;9842965;29;20414;-80
2021/04/23 10:14:42;;;;;;;10.90;4.15;;;15.00;42.40;;;;;;9858046;29;20116;-82
2021/04/23 10:19:36;;;;;;;12.73;4.30;;;14.00;41.60;;;;;;9841942;29;20094;-81
2021/04/23 10:24:33;;;;;;;11.43;4.68;;;;;;;;;;9863133;29;20083;-80
2021/04/23 10:29:29;;;;;;;12.52;5.00;;;14.30;41.80;;;;;;9849068;29;20494;-82
2021/04/23 10:34:32;;;;;;;14.43;4.45;;;;;;;;;;9865567;29;20094;-81
2021/04/23 10:39:36;;;;;;;;;;;13.80;41.30;;;;;;9847955;29;20102;-74
2021/04/23 10:44:58;;;;;;;10.63;4.10;;;14.40;39.70;;;;;;9832197;29;19969;-76
2021/04/23 10:50:10;;;;;;;10.65;4.15;;;14.50;39.10;;;;;;9823087;29;20375;-77
2021/04/23 10:55:08;;;;;;;9.93;4.07;;;16.60;41.00;;;;;;9848414;29;20087;-77
2021/04/23 11:00:30;;;;;;;9.98;4.60;;;;;;;;;;9863974;29;20122;-76
2021/04/23 11:05:39;;;;;;;10.02;3.55;;;;;;;;;;9862181;29;20119;-76
2021/04/23 11:11:16;;;;;;;6.13;3.30;;;14.40;37.80;;;;;;9863453;29;20087;-75
2021/04/23 11:16:43;;;;;;;11.32;3.30;;;16.40;38.60;;;;;;9864835;29;20491;-75
2021/04/23 11:21:39;;;;;;;7.38;3.35;;;16.50;39.80;;;;;;9864098;29;20048;-75
2021/04/23 11:26:48;;;;;;;11.68;4.35;;;;;;;;;;9875663;29;20083;-76
2021/04/23 11:32:35;;;;;;;8.23;3.67;;;15.60;36.90;;;;;;9863695;29;20048;-81
2021/04/23 11:37:31;;;;;;;10.63;4.20;;;16.90;37.40;;;;;;9862287;29;20094;-82
2021/04/23 11:42:26;;;;;;;10.48;3.80;;;16.70;35.00;;;;;;9863055;29;20363;-77
2021/04/23 11:47:32;;;;;;;7.25;2.97;;;17.10;33.80;;;;;;9861156;29;20056;-79
2021/04/23 11:52:29;;;;;;;6.82;4.00;;;16.30;34.40;;;;;;9877093;29;20055;-79
2021/04/23 11:57:29;;;;;;;12.15;4.00;;;16.80;34.10;;;;;;9846183;29;20052;-77
2021/04/23 12:02:52;;;;;;;9.40;3.95;;;16.10;34.60;;;;;;9862527;29;20086;-75
2021/04/23 12:07:47;;;;;;;9.20;3.75;;;;;;;;;;9846512;29;20055;-76
2021/04/23 12:12:44;;;;;;;9.80;4.13;;;;;;;;;;9845959;29;20087;-76
2021/04/23 12:17:42;;;;;;;10.75;3.40;;;16.50;34.50;;;;;;9863186;29;20510;-76
2021/04/23 12:22:39;;;;;;;7.88;3.67;;;16.70;34.00;;;;;;9862310;29;20094;-76
2021/04/23 12:27:33;;;;;;;10.65;3.75;;;18.70;36.00;;;;;;9861279;29;20497;-75
2021/04/23 12:32:26;;;;;;;7.22;4.15;;;16.90;33.10;;;;;;9845180;29;20511;-76
2021/04/23 12:37:26;;;;;;;10.13;3.53;;;17.10;30.50;;;;;;9845688;29;20087;-75
2021/04/23 12:42:26;;;;;;;11.00;3.60;;;19.10;31.80;;;;;;9862844;29;20487;-76
2021/04/23 12:47:20;;;;;;;11.27;4.18;;;17.40;29.80;;;;;;9846463;29;20591;-77
2021/04/23 12:52:17;;;;;;;10.05;3.70;;;18.70;31.80;;;;;;9844950;29;20059;-79
2021/04/23 12:57:14;;;;;;;11.13;3.90;;;16.40;33.10;;;;;;9845285;29;20082;-75
2021/04/23 13:02:09;;;;;;;8.38;3.92;;;;;;;;;;9843499;29;20075;-77
2021/04/23 13:07:13;;;;;;;9.97;3.10;;;16.40;33.30;;;;;;9845105;29;20648;-76
2021/04/23 13:12:23;;;;;;;8.75;3.15;;;16.70;32.20;;;;;;9857170;29;20047;-76
2021/04/23 13:17:21;;;;;;;9.75;3.90;;;18.50;34.10;;;;;;9861609;29;20051;-76
2021/04/23 13:22:29;;;;;;;7.50;3.55;;;18.70;32.70;;;;;;9860093;29;20090;-76
2021/04/23 13:27:29;;;;;;;10.73;3.53;;;18.10;33.20;;;;;;9861408;29;20525;-75
2021/04/23 13:32:24;;;;;;;6.93;3.10;;;;;;;;;;9859491;28;20109;-75
2021/04/23 13:37:28;;;;;;;7.28;3.30;;;;;;;;;;9843345;29;20090;-76
2021/04/23 13:42:27;;;;;;;6.85;2.85;;;18.70;32.30;;;;;;9844238;29;20101;-77
2021/04/23 13:47:21;;;;;;;7.25;3.88;;;19.30;32.30;;;;;;9843374;29;20086;-77
2021/04/23 13:52:16;;;;;;;6.97;2.97;;;;;;;;;;9827385;29;20063;-73
2021/04/23 13:57:12;;;;;;;6.97;3.42;;;16.30;31.30;;;;;;9859093;29;20093;-78
2021/04/23 14:02:16;;;;;;;6.20;3.40;;;19.40;33.10;;;;;;9842543;29;20079;-82
2021/04/23 14:07:14;;;;;;;6.35;3.30;;;18.10;32.20;;;;;;9842835;29;20479;-75
2021/04/23 14:12:10;;;;;;;6.18;3.05;;;18.00;32.20;;;;;;9843017;29;20090;-77
2021/04/23 14:17:11;;;;;;;11.07;3.40;;;18.90;32.50;;;;;;9843620;29;20099;-76
2021/04/23 14:22:12;;;;;;;9.50;3.70;;;19.60;32.90;;;;;;9827421;29;20066;-76
2021/04/23 14:27:07;;;;;;;7.80;3.55;;;16.50;30.20;;;;;;9860034;29;20102;-77
2021/04/23 14:32:04;;;;;;;6.80;3.00;;;19.10;33.30;;;;;;9842130;29;20078;-77
2021/04/23 14:37:08;;;;;;;9.30;3.70;;;16.80;31.10;;;;;;9859387;29;20443;-79
2021/04/23 14:42:06;;;;;;;7.43;3.28;;;16.40;31.30;;;;;;9841682;29;20447;-76
2021/04/23 14:47:01;;;;;;;8.25;3.55;;;18.50;32.30;;;;;;9811729;29;20114;-77
2021/04/23 14:51:57;;;;;;;8.93;3.65;;;16.50;31.50;;;;;;9858162;29;20098;-77
2021/04/23 14:56:52;;;;;;;9.10;3.40;;;15.70;32.10;;;;;;9859049;29;20079;-82
2021/04/23 15:01:56;;;;;;;8.45;3.10;;;16.90;31.60;;;;;;9842852;29;20095;-75
2021/04/23 15:06:54;;;;;;;7.30;2.88;;;;;;;;;;9857604;29;20514;-76
2021/04/23 15:11:56;;;;;;;5.53;3.40;;;;;;;;;;9847152;29;20578;-76
2021/04/23 15:16:51;;;;;;;12.07;2.80;;;19.20;34.30;;;;;;9866648;29;20079;-78
2021/04/23 15:21:45;;;;;;;7.18;3.20;;;16.60;31.50;;;;;;9847638;29;20063;-76
2021/04/23 15:26:41;;;;;;;11.35;3.28;;;17.80;32.40;;;;;;9864653;29;20083;-75
2021/04/23 15:31:37;;;;;;;8.90;3.33;;;18.90;33.70;;;;;;9847511;29;20086;-75
2021/04/23 15:36:33;;;;;;;8.55;3.10;;;16.10;32.60;;;;;;9857324;29;20079;-77
2021/04/23 15:41:28;;;;;;;7.30;2.90;;;;;;;;;;9864750;29;20071;-76
2021/04/23 15:46:23;;;;;;;5.65;2.70;;;16.70;32.80;;;;;;9847642;29;20087;-77
2021/04/23 15:51:18;;;;;;;10.07;3.08;;;15.90;32.60;;;;;;9847099;29;20082;-75
2021/04/23 15:56:14;;;;;;;12.02;3.25;;;16.40;33.10;;;;;;9857082;29;20058;-77
2021/04/23 16:01:08;;;;;;;7.38;2.90;;;16.30;31.90;;;;;;9877904;29;20090;-75
2021/04/23 16:06:11;;;;;;;7.00;2.55;;;16.90;33.60;;;;;;9878220;29;20550;-75
2021/04/23 16:11:09;;;;;;;7.03;2.60;;;16.00;33.20;;;;;;9862584;29;20083;-76
2021/04/23 16:16:05;;;;;;;6.60;2.45;;;;;;;;;;9862508;29;20129;-77
2021/04/23 16:20:59;;;;;;;8.15;3.05;;;15.70;33.40;;;;;;9861162;29;20087;-76
2021/04/23 16:25:57;;;;;;;3.42;2.42;;;16.20;33.00;;;;;;9861977;29;20094;-76
2021/04/23 16:30:52;;;;;;;6.13;2.63;;;15.00;33.70;;;;;;9863835;29;20523;-77
2021/04/23 16:35:47;;;;;;;5.60;2.78;;;16.00;34.30;;;;;;9863137;29;20083;-76
2021/04/23 16:40:41;;;;;;;7.10;3.05;;;14.20;33.60;;;;;;9861688;29;20090;-74
2021/04/23 16:45:37;;;;;;;8.75;3.00;;;;;;;;;;9862418;29;20083;-75
2021/04/23 16:50:31;;;;;;;8.35;2.78;;;17.30;34.20;;;;;;9861433;29;20403;-75
2021/04/23 16:55:26;;;;;;;5.82;2.75;;;;;;;;;;9876874;29;20182;-76
2021/04/23 17:00:23;;;;;;;10.25;2.90;;;;;;;;;;9865449;29;20478;-76
2021/04/23 17:05:19;;;;;;;6.18;2.72;;;15.70;33.70;;;;;;9862121;29;20495;-75
2021/04/23 17:10:17;;;;;;;11.93;2.83;;;14.80;33.40;;;;;;9862231;29;20050;-75
2021/04/23 17:15:14;;;;;;;6.18;3.05;;;15.20;34.60;;;;;;9862223;29;20047;-76
2021/04/23 17:20:11;;;;;;;7.43;2.50;;;15.30;33.70;;;;;;9876973;29;20083;-77
2021/04/23 17:25:09;;;;;;;6.72;2.92;;;15.50;33.90;;;;;;9860935;29;20117;-76
2021/04/23 17:30:06;;;;;;;6.32;3.42;;;14.80;33.70;;;;;;9859675;29;20059;-77
2021/04/23 17:35:00;;;;;;;9.40;2.92;;;15.70;34.30;;;;;;9858702;29;20090;-75
2021/04/23 17:39:54;;;;;;;8.90;3.45;;;15.30;34.10;;;;;;9875700;29;20087;-75
2021/04/23 17:44:48;;;;;;;7.38;2.90;;;14.30;34.50;;;;;;9861152;29;20086;-78
2021/04/23 17:49:43;;;;;;;8.32;2.72;;;;;;;;;;9860569;29;20435;-78
2021/04/23 17:54:37;;;;;;;9.57;3.83;;;14.70;34.10;;;;;;9860793;29;20491;-76
2021/04/23 17:59:31;;;;;;;10.07;4.05;;;15.00;35.30;;;;;;9844254;29;20083;-76
2021/04/23 18:04:26;;;;;;;14.13;5.28;;;;;;;;;;9843047;29;20083;-77
2021/04/23 18:09:21;;;;;;;8.55;3.10;;;16.00;36.00;;;;;;9860331;29;20087;-77
2021/04/23 18:14:15;;;;;;;6.80;3.17;;;15.10;35.80;;;;;;9860125;29;20467;-76
2021/04/23 18:19:09;;;;;;;9.18;3.20;;;14.90;35.10;;;;;;9860750;29;20105;-77
2021/04/23 18:24:04;;;;;;;7.97;3.00;;;;;;;;;;9860464;29;20055;-77
2021/04/23 18:28:59;;;;;;;11.85;4.22;;;16.10;36.50;;;;;;9827614;29;20091;-77
2021/04/23 18:33:53;;;;;;;6.45;3.17;;;14.30;35.70;;;;;;9858827;29;20086;-76
2021/04/23 18:39:04;;;;;;;9.50;3.47;;;15.10;36.10;;;;;;9842660;29;20488;-77
2021/04/23 18:44:00;;;;;;;13.35;3.70;;;14.80;35.50;;;;;;9860446;29;20089;-76
2021/04/23 18:48:54;;;;;;;11.65;4.97;;;14.70;35.50;;;;;;9865894;29;20082;-77
2021/04/23 18:53:49;;;;;;;8.95;4.10;;;;;;;;;;9866957;29;20094;-77
2021/04/23 18:58:43;;;;;;;9.88;3.40;;;14.30;36.40;;;;;;9866801;29;20090;-77
2021/04/23 19:03:39;;;;;;;10.52;4.20;;;15.50;36.50;;;;;;9850461;29;20098;-76
2021/04/23 19:08:34;;;;;;;9.45;4.20;;;15.00;36.40;;;;;;9879051;29;20094;-76
2021/04/23 19:13:28;;;;;;;10.23;4.07;;;14.70;37.20;;;;;;9864778;29;20121;-76
2021/04/23 19:18:23;;;;;;;9.70;4.40;;;;;;;;;;9865984;29;20503;-77
2021/04/23 19:23:17;;;;;;;8.93;3.65;;;14.10;36.60;;;;;;9848708;29;20067;-76
2021/04/23 19:28:17;;;;;;;6.93;4.18;;;14.30;37.50;;;;;;9848509;29;20106;-76
2021/04/23 19:33:11;;;;;;;12.35;5.38;;;14.30;37.10;;;;;;9865821;29;20087;-77
2021/04/23 19:38:04;;;;;;;11.00;4.07;;;15.20;37.90;;;;;;9865831;29;20079;-77
2021/04/23 19:42:59;;;;;;;7.07;3.50;;;14.10;37.40;;;;;;9866150;29;20082;-75
2021/04/23 19:47:57;;;;;;;7.95;3.83;;;;;;;;;;9864878;29;20485;-76
2021/04/23 19:52:53;;;;;;;8.60;4.63;;;;;;;;;;9847843;29;20083;-77
2021/04/23 19:57:47;;;;;;;10.98;4.78;;;14.40;38.00;;;;;;9863450;29;20051;-77
2021/04/23 20:02:44;;;;;;;7.45;3.83;;;13.60;37.90;;;;;;9848093;29;20159;-76
2021/04/23 20:07:38;;;;;;;69.80;36.15;;;14.40;39.10;;;;;;9865476;29;20095;-81
2021/04/23 20:12:32;;;;;;;78.93;42.30;;;14.50;38.00;;;;;;9865082;29;20105;-80
2021/04/23 20:17:26;;;;;;;14.93;7.25;;;15.20;37.60;;;;;;9864108;29;20271;-77
2021/04/23 20:22:21;;;;;;;12.45;5.80;;;15.20;37.70;;;;;;9863500;29;20087;-78
2021/04/23 20:27:14;;;;;;;6.80;4.00;;;13.60;37.80;;;;;;9863137;29;20451;-77
2021/04/23 20:32:07;;;;;;;9.63;4.43;;;14.00;36.90;;;;;;9863138;29;20083;-79
2021/04/23 20:37:02;;;;;;;9.32;3.78;;;13.40;36.90;;;;;;9863083;29;20122;-78
2021/04/23 20:41:58;;;;;;;10.50;4.00;;;13.60;38.40;;;;;;9875411;29;20487;-79
2021/04/23 20:46:52;;;;;;;10.60;4.40;;;;;;;;;;9862990;29;20087;-78
2021/04/23 20:51:46;;;;;;;8.48;4.25;;;14.20;38.60;;;;;;9863021;29;20071;-78
2021/04/23 20:56:40;;;;;;;8.18;3.55;;;13.50;38.30;;;;;;9842618;29;20091;-80
2021/04/23 21:01:34;;;;;;;8.93;3.85;;;14.30;37.60;;;;;;9860770;29;20074;-79
2021/04/23 21:06:28;;;;;;;8.10;4.20;;;14.10;37.60;;;;;;9860141;29;20477;-81
2021/04/23 21:11:22;;;;;;;8.13;4.03;;;14.00;37.60;;;;;;9861905;29;20153;-78
2021/04/23 21:16:15;;;;;;;9.93;3.65;;;14.40;39.20;;;;;;9861844;29;20134;-79
2021/04/23 21:21:10;;;;;;;15.25;8.57;;;14.20;39.00;;;;;;9860598;29;20086;-78
2021/04/23 21:26:03;;;;;;;5.72;3.60;;;15.10;38.30;;;;;;9861706;29;20521;-78
2021/04/23 21:30:58;;;;;;;8.80;3.78;;;14.80;38.30;;;;;;9861575;29;20082;-77
2021/04/23 21:35:51;;;;;;;8.50;4.30;;;14.70;39.40;;;;;;9859942;29;20153;-77
2021/04/23 21:40:48;;;;;;;7.22;3.60;;;13.50;37.80;;;;;;9861022;29;20079;-78
2021/04/23 21:45:42;;;;;;;9.00;4.28;;;13.40;39.10;;;;;;9861018;29;20514;-77
2021/04/23 21:50:36;;;;;;;5.57;3.33;;;13.80;38.30;;;;;;9875625;29;20090;-77
2021/04/23 21:55:30;;;;;;;6.32;3.58;;;;;;;;;;9861180;29;20091;-75
2021/04/23 22:00:27;;;;;;;8.73;3.78;;;13.80;38.00;;;;;;9844053;29;20079;-78
2021/04/23 22:05:20;;;;;;;7.40;3.78;;;13.50;37.90;;;;;;9870841;29;20495;-76
2021/04/23 22:10:17;;;;;;;7.55;3.10;;;;;;;;;;9860568;29;20091;-76
2021/04/23 22:15:12;;;;;;;6.57;3.20;;;13.80;37.90;;;;;;9843466;29;20416;-78
2021/04/23 22:20:08;;;;;;;6.70;3.13;;;13.20;38.80;;;;;;9864164;29;20199;-76
2021/04/23 22:25:04;;;;;;;7.43;3.17;;;14.60;39.60;;;;;;9868109;29;20374;-77
2021/04/23 22:29:57;;;;;;;6.22;3.00;;;13.80;38.10;;;;;;9868527;29;20079;-77
2021/04/23 22:34:51;;;;;;;9.00;3.85;;;12.40;37.50;;;;;;9851485;29;20081;-77
2021/04/23 22:39:45;;;;;;;7.75;3.15;;;15.10;40.20;;;;;;9868067;29;20459;-76
2021/04/23 22:44:38;;;;;;;9.40;2.80;;;12.90;38.00;;;;;;9867740;29;20056;-76
2021/04/23 22:49:34;;;;;;;7.13;3.45;;;14.40;38.80;;;;;;9867384;29;20099;-77
2021/04/23 22:54:28;;;;;;;9.43;3.40;;;11.70;38.80;;;;;;9867067;29;20102;-77
2021/04/23 22:59:23;;;;;;;8.43;3.40;;;12.30;39.20;;;;;;9867356;29;20075;-75
2021/04/23 23:04:17;;;;;;;4.90;3.13;;;13.80;38.70;;;;;;9850082;29;20494;-78
2021/04/23 23:09:10;;;;;;;8.85;3.33;;;13.60;38.80;;;;;;9866031;29;20078;-77
2021/04/23 23:14:04;;;;;;;10.77;3.83;;;12.00;38.30;;;;;;9866813;29;20179;-77
2021/04/23 23:18:58;;;;;;;16.88;4.35;;;11.80;38.10;;;;;;9866521;29;20498;-78
2021/04/23 23:23:55;;;;;;;8.70;3.40;;;12.60;38.70;;;;;;9866562;29;20087;-77
2021/04/23 23:28:48;;;;;;;7.22;3.65;;;13.30;39.30;;;;;;9866343;29;20087;-76
2021/04/23 23:33:42;;;;;;;11.60;3.63;;;12.90;40.60;;;;;;9864428;29;20086;-76
2021/04/23 23:38:37;;;;;;;6.47;3.13;;;;;;;;;;9865525;29;20521;-77
2021/04/23 23:43:31;;;;;;;10.88;3.85;;;12.70;40.50;;;;;;9848556;29;20063;-75
2021/04/23 23:48:25;;;;;;;8.90;3.25;;;11.70;38.90;;;;;;9864235;29;20083;-76
2021/04/23 23:53:18;;;;;;;5.63;3.17;;;11.90;40.40;;;;;;9865400;29;20098;-76
2021/04/23 23:58:15;;;;;;;6.78;3.53;;;12.90;41.00;;;;;;9848260;29;20044;-76
